sensor_id;sensor_type;location;lat;lon;timestamp;temperature;humidity
52189;DHT22;38162;45.926;13.608;2022-12-07T00:00:54;7.80;92.80
52189;DHT22;38162;45.926;13.608;2022-12-07T00:03:20;7.80;92.40
52189;DHT22;38162;45.926;13.608;2022-12-07T00:05:46;7.80;92.50
52189;DHT22;38162;45.926;13.608;2022-12-07T00:08:11;7.70;92.30
52189;DHT22;38162;45.926;13.608;2022-12-07T00:10:37;7.70;92.20
52189;DHT22;38162;45.926;13.608;2022-12-07T00:13:03;7.80;92.40
52189;DHT22;38162;45.926;13.608;2022-12-07T00:15:28;7.70;92.20
52189;DHT22;38162;45.926;13.608;2022-12-07T00:17:54;7.70;92.50
52189;DHT22;38162;45.926;13.608;2022-12-07T00:20:19;7.70;92.40
52189;DHT22;38162;45.926;13.608;2022-12-07T00:22:45;7.70;92.30
52189;DHT22;38162;45.926;13.608;2022-12-07T00:25:11;7.70;92.30
52189;DHT22;38162;45.926;13.608;2022-12-07T00:27:36;7.70;92.30
52189;DHT22;38162;45.926;13.608;2022-12-07T00:30:02;7.70;92.20
52189;DHT22;38162;45.926;13.608;2022-12-07T00:32:28;7.70;92.20
52189;DHT22;38162;45.926;13.608;2022-12-07T00:34:54;7.70;92.30
52189;DHT22;38162;45.926;13.608;2022-12-07T00:37:19;7.70;92.10
52189;DHT22;38162;45.926;13.608;2022-12-07T00:39:46;7.70;92.10
52189;DHT22;38162;45.926;13.608;2022-12-07T00:42:11;7.70;92.10
52189;DHT22;38162;45.926;13.608;2022-12-07T00:44:37;7.70;92.10
52189;DHT22;38162;45.926;13.608;2022-12-07T00:47:03;7.70;92.10
52189;DHT22;38162;45.926;13.608;2022-12-07T00:49:28;7.70;92.10
52189;DHT22;38162;45.926;13.608;2022-12-07T00:51:54;7.70;92.00
52189;DHT22;38162;45.926;13.608;2022-12-07T00:54:20;7.70;91.90
52189;DHT22;38162;45.926;13.608;2022-12-07T00:56:45;7.70;92.00
52189;DHT22;38162;45.926;13.608;2022-12-07T00:59:13;7.70;92.10
52189;DHT22;38162;45.926;13.608;2022-12-07T01:01:41;7.70;92.10
52189;DHT22;38162;45.926;13.608;2022-12-07T01:04:07;7.70;92.10
52189;DHT22;38162;45.926;13.608;2022-12-07T01:06:33;7.70;92.20
52189;DHT22;38162;45.926;13.608;2022-12-07T01:08:59;7.60;92.20
52189;DHT22;38162;45.926;13.608;2022-12-07T01:11:28;7.60;92.30
52189;DHT22;38162;45.926;13.608;2022-12-07T01:13:55;7.60;92.40
52189;DHT22;38162;45.926;13.608;2022-12-07T01:16:24;7.60;92.40
52189;DHT22;38162;45.926;13.608;2022-12-07T01:18:51;7.60;92.60
52189;DHT22;38162;45.926;13.608;2022-12-07T01:21:20;7.60;92.70
52189;DHT22;38162;45.926;13.608;2022-12-07T01:23:46;7.60;92.80
52189;DHT22;38162;45.926;13.608;2022-12-07T01:26:15;7.60;93.10
52189;DHT22;38162;45.926;13.608;2022-12-07T01:28:41;7.60;93.10
52189;DHT22;38162;45.926;13.608;2022-12-07T01:31:09;7.60;93.10
52189;DHT22;38162;45.926;13.608;2022-12-07T01:33:40;7.60;92.90
52189;DHT22;38162;45.926;13.608;2022-12-07T01:36:16;7.60;93.10
52189;DHT22;38162;45.926;13.608;2022-12-07T01:38:42;7.70;92.70
52189;DHT22;38162;45.926;13.608;2022-12-07T01:41:08;7.60;92.90
52189;DHT22;38162;45.926;13.608;2022-12-07T01:43:34;7.70;92.70
52189;DHT22;38162;45.926;13.608;2022-12-07T01:46:01;7.70;92.80
52189;DHT22;38162;45.926;13.608;2022-12-07T01:48:40;7.70;92.60
52189;DHT22;38162;45.926;13.608;2022-12-07T01:51:11;7.70;92.70
52189;DHT22;38162;45.926;13.608;2022-12-07T01:53:40;7.70;92.50
52189;DHT22;38162;45.926;13.608;2022-12-07T01:56:09;7.70;92.50
52189;DHT22;38162;45.926;13.608;2022-12-07T01:58:36;7.70;92.50
52189;DHT22;38162;45.926;13.608;2022-12-07T02:01:02;7.70;92.40
52189;DHT22;38162;45.926;13.608;2022-12-07T02:03:42;7.60;92.70
52189;DHT22;38162;45.926;13.608;2022-12-07T02:06:12;7.70;92.70
52189;DHT22;38162;45.926;13.608;2022-12-07T02:08:39;7.60;92.60
52189;DHT22;38162;45.926;13.608;2022-12-07T02:11:07;7.60;92.60
52189;DHT22;38162;45.926;13.608;2022-12-07T02:13:35;7.60;92.60
52189;DHT22;38162;45.926;13.608;2022-12-07T02:19:01;7.60;92.70
52189;DHT22;38162;45.926;13.608;2022-12-07T02:29:47;7.50;92.70
52189;DHT22;38162;45.926;13.608;2022-12-07T02:35:32;7.50;92.80
52189;DHT22;38162;45.926;13.608;2022-12-07T02:41:11;7.50;92.80
52189;DHT22;38162;45.926;13.608;2022-12-07T02:43:45;7.50;92.70
52189;DHT22;38162;45.926;13.608;2022-12-07T02:46:15;7.50;92.50
52189;DHT22;38162;45.926;13.608;2022-12-07T02:48:43;7.40;92.60
52189;DHT22;38162;45.926;13.608;2022-12-07T02:51:09;7.40;92.40
52189;DHT22;38162;45.926;13.608;2022-12-07T02:53:42;7.40;92.40
52189;DHT22;38162;45.926;13.608;2022-12-07T02:59:18;7.40;92.70
52189;DHT22;38162;45.926;13.608;2022-12-07T03:07:33;7.40;92.30
52189;DHT22;38162;45.926;13.608;2022-12-07T03:18:16;7.50;91.60
52189;DHT22;38162;45.926;13.608;2022-12-07T03:20:44;7.50;91.60
52189;DHT22;38162;45.926;13.608;2022-12-07T03:23:12;7.50;91.60
52189;DHT22;38162;45.926;13.608;2022-12-07T03:25:43;7.60;91.40
52189;DHT22;38162;45.926;13.608;2022-12-07T03:28:14;7.50;91.40
52189;DHT22;38162;45.926;13.608;2022-12-07T03:30:53;7.50;91.70
52189;DHT22;38162;45.926;13.608;2022-12-07T03:33:27;7.50;91.70
52189;DHT22;38162;45.926;13.608;2022-12-07T03:35:58;7.50;91.70
52189;DHT22;38162;45.926;13.608;2022-12-07T03:38:33;7.50;91.70
52189;DHT22;38162;45.926;13.608;2022-12-07T03:41:12;7.50;91.60
52189;DHT22;38162;45.926;13.608;2022-12-07T03:43:40;7.40;91.60
52189;DHT22;38162;45.926;13.608;2022-12-07T03:46:15;7.40;91.70
52189;DHT22;38162;45.926;13.608;2022-12-07T03:48:56;7.40;91.80
52189;DHT22;38162;45.926;13.608;2022-12-07T03:51:33;7.40;91.80
52189;DHT22;38162;45.926;13.608;2022-12-07T03:56:34;7.40;91.90
52189;DHT22;38162;45.926;13.608;2022-12-07T03:59:00;7.40;91.80
52189;DHT22;38162;45.926;13.608;2022-12-07T04:01:25;7.30;92.00
52189;DHT22;38162;45.926;13.608;2022-12-07T04:03:51;7.30;92.00
52189;DHT22;38162;45.926;13.608;2022-12-07T04:06:17;7.30;91.80
52189;DHT22;38162;45.926;13.608;2022-12-07T04:08:43;7.30;92.10
52189;DHT22;38162;45.926;13.608;2022-12-07T04:11:08;7.20;91.80
52189;DHT22;38162;45.926;13.608;2022-12-07T04:13:34;7.20;91.90
52189;DHT22;38162;45.926;13.608;2022-12-07T04:16:20;7.20;91.90
52189;DHT22;38162;45.926;13.608;2022-12-07T04:18:46;7.20;92.00
52189;DHT22;38162;45.926;13.608;2022-12-07T04:21:11;7.20;91.90
52189;DHT22;38162;45.926;13.608;2022-12-07T04:23:37;7.20;91.80
52189;DHT22;38162;45.926;13.608;2022-12-07T04:26:03;7.10;91.80
52189;DHT22;38162;45.926;13.608;2022-12-07T04:28:28;7.10;91.90
52189;DHT22;38162;45.926;13.608;2022-12-07T04:30:54;7.10;92.00
52189;DHT22;38162;45.926;13.608;2022-12-07T04:33:20;7.10;92.30
52189;DHT22;38162;45.926;13.608;2022-12-07T04:35:45;7.10;91.90
52189;DHT22;38162;45.926;13.608;2022-12-07T04:38:11;7.10;91.90
52189;DHT22;38162;45.926;13.608;2022-12-07T04:40:37;7.10;92.20
52189;DHT22;38162;45.926;13.608;2022-12-07T04:43:02;7.10;92.10
52189;DHT22;38162;45.926;13.608;2022-12-07T04:45:28;7.00;92.00
52189;DHT22;38162;45.926;13.608;2022-12-07T04:47:53;7.00;92.30
52189;DHT22;38162;45.926;13.608;2022-12-07T04:50:19;7.00;92.40
52189;DHT22;38162;45.926;13.608;2022-12-07T04:52:45;7.00;92.10
52189;DHT22;38162;45.926;13.608;2022-12-07T04:55:10;7.00;92.00
52189;DHT22;38162;45.926;13.608;2022-12-07T04:57:36;7.00;91.90
52189;DHT22;38162;45.926;13.608;2022-12-07T05:00:02;7.00;92.10
52189;DHT22;38162;45.926;13.608;2022-12-07T05:02:28;6.90;92.10
52189;DHT22;38162;45.926;13.608;2022-12-07T05:04:54;6.90;91.90
52189;DHT22;38162;45.926;13.608;2022-12-07T05:07:19;6.90;92.10
52189;DHT22;38162;45.926;13.608;2022-12-07T05:09:45;6.90;92.10
52189;DHT22;38162;45.926;13.608;2022-12-07T05:12:10;6.90;92.00
52189;DHT22;38162;45.926;13.608;2022-12-07T05:14:36;7.00;91.90
52189;DHT22;38162;45.926;13.608;2022-12-07T05:17:02;7.00;91.90
52189;DHT22;38162;45.926;13.608;2022-12-07T05:19:27;7.00;91.60
52189;DHT22;38162;45.926;13.608;2022-12-07T05:21:53;7.00;91.70
52189;DHT22;38162;45.926;13.608;2022-12-07T05:24:19;7.00;91.60
52189;DHT22;38162;45.926;13.608;2022-12-07T05:26:45;7.00;91.70
52189;DHT22;38162;45.926;13.608;2022-12-07T05:29:13;7.00;91.90
52189;DHT22;38162;45.926;13.608;2022-12-07T05:31:39;7.00;91.80
52189;DHT22;38162;45.926;13.608;2022-12-07T05:34:05;7.00;91.80
52189;DHT22;38162;45.926;13.608;2022-12-07T05:36:30;6.90;91.70
52189;DHT22;38162;45.926;13.608;2022-12-07T05:38:57;6.90;91.80
52189;DHT22;38162;45.926;13.608;2022-12-07T05:41:23;6.90;91.60
52189;DHT22;38162;45.926;13.608;2022-12-07T05:44:07;6.90;91.80
52189;DHT22;38162;45.926;13.608;2022-12-07T05:46:33;6.90;91.60
52189;DHT22;38162;45.926;13.608;2022-12-07T05:48:59;6.90;91.60
52189;DHT22;38162;45.926;13.608;2022-12-07T05:51:25;6.90;91.50
52189;DHT22;38162;45.926;13.608;2022-12-07T05:53:50;6.90;91.70
52189;DHT22;38162;45.926;13.608;2022-12-07T05:56:16;6.90;91.70
52189;DHT22;38162;45.926;13.608;2022-12-07T05:58:42;6.90;91.70
52189;DHT22;38162;45.926;13.608;2022-12-07T06:01:26;6.90;91.60
52189;DHT22;38162;45.926;13.608;2022-12-07T06:03:52;6.90;91.70
52189;DHT22;38162;45.926;13.608;2022-12-07T06:06:18;6.90;91.30
52189;DHT22;38162;45.926;13.608;2022-12-07T06:08:43;6.90;91.50
52189;DHT22;38162;45.926;13.608;2022-12-07T06:11:09;6.80;91.80
52189;DHT22;38162;45.926;13.608;2022-12-07T06:13:53;6.80;91.50
52189;DHT22;38162;45.926;13.608;2022-12-07T06:16:19;6.80;91.10
52189;DHT22;38162;45.926;13.608;2022-12-07T06:18:45;6.80;91.40
52189;DHT22;38162;45.926;13.608;2022-12-07T06:21:10;6.80;91.30
52189;DHT22;38162;45.926;13.608;2022-12-07T06:23:36;6.80;91.40
52189;DHT22;38162;45.926;13.608;2022-12-07T06:26:01;6.80;91.40
52189;DHT22;38162;45.926;13.608;2022-12-07T06:28:27;6.80;91.40
52189;DHT22;38162;45.926;13.608;2022-12-07T06:31:00;6.80;91.70
52189;DHT22;38162;45.926;13.608;2022-12-07T06:33:27;6.80;91.60
52189;DHT22;38162;45.926;13.608;2022-12-07T06:35:52;6.80;91.70
52189;DHT22;38162;45.926;13.608;2022-12-07T06:38:18;6.80;91.70
52189;DHT22;38162;45.926;13.608;2022-12-07T06:40:44;6.80;91.70
52189;DHT22;38162;45.926;13.608;2022-12-07T06:43:10;6.70;91.80
52189;DHT22;38162;45.926;13.608;2022-12-07T06:45:35;6.70;92.00
52189;DHT22;38162;45.926;13.608;2022-12-07T06:48:01;6.70;91.80
52189;DHT22;38162;45.926;13.608;2022-12-07T06:50:27;6.60;92.00
52189;DHT22;38162;45.926;13.608;2022-12-07T06:52:52;6.60;91.70
52189;DHT22;38162;45.926;13.608;2022-12-07T06:55:18;6.60;91.80
52189;DHT22;38162;45.926;13.608;2022-12-07T06:57:44;6.60;92.20
52189;DHT22;38162;45.926;13.608;2022-12-07T07:00:10;6.60;92.10
52189;DHT22;38162;45.926;13.608;2022-12-07T07:02:36;6.60;92.10
52189;DHT22;38162;45.926;13.608;2022-12-07T07:05:02;6.60;92.20
52189;DHT22;38162;45.926;13.608;2022-12-07T07:07:28;6.60;92.40
52189;DHT22;38162;45.926;13.608;2022-12-07T07:09:54;6.60;92.20
52189;DHT22;38162;45.926;13.608;2022-12-07T07:12:20;6.60;92.20
52189;DHT22;38162;45.926;13.608;2022-12-07T07:14:45;6.60;92.20
52189;DHT22;38162;45.926;13.608;2022-12-07T07:17:11;6.60;92.10
52189;DHT22;38162;45.926;13.608;2022-12-07T07:19:37;6.70;92.20
52189;DHT22;38162;45.926;13.608;2022-12-07T07:22:03;6.70;92.10
52189;DHT22;38162;45.926;13.608;2022-12-07T07:24:30;6.70;92.20
52189;DHT22;38162;45.926;13.608;2022-12-07T07:26:55;6.70;92.30
52189;DHT22;38162;45.926;13.608;2022-12-07T07:29:21;6.80;92.30
52189;DHT22;38162;45.926;13.608;2022-12-07T07:31:47;6.80;92.30
52189;DHT22;38162;45.926;13.608;2022-12-07T07:34:12;6.80;92.20
52189;DHT22;38162;45.926;13.608;2022-12-07T07:36:38;6.80;92.30
52189;DHT22;38162;45.926;13.608;2022-12-07T07:39:04;6.90;92.30
52189;DHT22;38162;45.926;13.608;2022-12-07T07:41:30;6.90;92.40
52189;DHT22;38162;45.926;13.608;2022-12-07T07:43:56;6.90;92.40
52189;DHT22;38162;45.926;13.608;2022-12-07T07:46:21;7.00;92.40
52189;DHT22;38162;45.926;13.608;2022-12-07T07:48:47;7.00;92.30
52189;DHT22;38162;45.926;13.608;2022-12-07T07:51:13;7.00;92.40
52189;DHT22;38162;45.926;13.608;2022-12-07T07:53:38;7.00;92.40
52189;DHT22;38162;45.926;13.608;2022-12-07T07:56:04;7.10;92.30
52189;DHT22;38162;45.926;13.608;2022-12-07T07:58:30;7.10;92.30
52189;DHT22;38162;45.926;13.608;2022-12-07T08:00:55;7.20;92.20
52189;DHT22;38162;45.926;13.608;2022-12-07T08:03:21;7.20;92.10
52189;DHT22;38162;45.926;13.608;2022-12-07T08:05:47;7.30;92.00
52189;DHT22;38162;45.926;13.608;2022-12-07T08:08:12;7.40;91.90
52189;DHT22;38162;45.926;13.608;2022-12-07T08:10:38;7.50;91.80
52189;DHT22;38162;45.926;13.608;2022-12-07T08:13:04;7.60;91.70
52189;DHT22;38162;45.926;13.608;2022-12-07T08:15:37;7.60;91.60
52189;DHT22;38162;45.926;13.608;2022-12-07T08:18:04;7.70;91.50
52189;DHT22;38162;45.926;13.608;2022-12-07T08:20:31;7.70;91.50
52189;DHT22;38162;45.926;13.608;2022-12-07T08:22:57;7.70;91.50
52189;DHT22;38162;45.926;13.608;2022-12-07T08:25:23;7.70;91.60
52189;DHT22;38162;45.926;13.608;2022-12-07T08:27:49;7.80;91.60
52189;DHT22;38162;45.926;13.608;2022-12-07T08:30:16;7.80;91.60
52189;DHT22;38162;45.926;13.608;2022-12-07T08:32:42;7.80;91.50
52189;DHT22;38162;45.926;13.608;2022-12-07T08:35:09;7.90;91.50
52189;DHT22;38162;45.926;13.608;2022-12-07T08:37:35;7.90;91.40
52189;DHT22;38162;45.926;13.608;2022-12-07T08:40:00;8.00;91.50
52189;DHT22;38162;45.926;13.608;2022-12-07T08:42:26;8.00;91.70
52189;DHT22;38162;45.926;13.608;2022-12-07T08:44:56;8.00;91.60
52189;DHT22;38162;45.926;13.608;2022-12-07T08:47:23;8.10;91.60
52189;DHT22;38162;45.926;13.608;2022-12-07T08:49:50;8.10;91.40
52189;DHT22;38162;45.926;13.608;2022-12-07T08:52:17;8.20;91.10
52189;DHT22;38162;45.926;13.608;2022-12-07T08:54:43;8.20;91.00
52189;DHT22;38162;45.926;13.608;2022-12-07T08:57:10;8.30;90.90
52189;DHT22;38162;45.926;13.608;2022-12-07T08:59:37;8.40;90.70
52189;DHT22;38162;45.926;13.608;2022-12-07T09:02:04;8.40;90.60
52189;DHT22;38162;45.926;13.608;2022-12-07T09:04:30;8.50;90.60
52189;DHT22;38162;45.926;13.608;2022-12-07T09:06:56;8.50;90.50
52189;DHT22;38162;45.926;13.608;2022-12-07T09:09:22;8.50;90.30
52189;DHT22;38162;45.926;13.608;2022-12-07T09:11:48;8.60;90.10
52189;DHT22;38162;45.926;13.608;2022-12-07T09:14:14;8.60;89.80
52189;DHT22;38162;45.926;13.608;2022-12-07T09:16:40;8.70;89.20
52189;DHT22;38162;45.926;13.608;2022-12-07T09:19:06;8.80;88.90
52189;DHT22;38162;45.926;13.608;2022-12-07T09:21:32;8.80;88.70
52189;DHT22;38162;45.926;13.608;2022-12-07T09:23:58;8.80;88.20
52189;DHT22;38162;45.926;13.608;2022-12-07T09:26:24;8.90;87.80
52189;DHT22;38162;45.926;13.608;2022-12-07T09:28:49;9.00;87.90
52189;DHT22;38162;45.926;13.608;2022-12-07T09:31:15;9.00;88.20
52189;DHT22;38162;45.926;13.608;2022-12-07T09:33:41;9.00;88.40
52189;DHT22;38162;45.926;13.608;2022-12-07T09:36:07;9.10;88.30
52189;DHT22;38162;45.926;13.608;2022-12-07T09:38:32;9.10;88.40
52189;DHT22;38162;45.926;13.608;2022-12-07T09:41:04;9.10;88.20
52189;DHT22;38162;45.926;13.608;2022-12-07T09:43:30;9.20;88.00
52189;DHT22;38162;45.926;13.608;2022-12-07T09:45:56;9.20;87.80
52189;DHT22;38162;45.926;13.608;2022-12-07T09:48:36;9.30;88.00
52189;DHT22;38162;45.926;13.608;2022-12-07T09:51:23;9.30;87.90
52189;DHT22;38162;45.926;13.608;2022-12-07T09:53:50;9.30;87.90
52189;DHT22;38162;45.926;13.608;2022-12-07T09:56:18;9.40;88.30
52189;DHT22;38162;45.926;13.608;2022-12-07T09:58:44;9.40;88.30
52189;DHT22;38162;45.926;13.608;2022-12-07T10:01:20;9.40;88.00
52189;DHT22;38162;45.926;13.608;2022-12-07T10:03:49;9.40;87.70
52189;DHT22;38162;45.926;13.608;2022-12-07T10:06:16;9.50;87.80
52189;DHT22;38162;45.926;13.608;2022-12-07T10:08:42;9.50;87.80
52189;DHT22;38162;45.926;13.608;2022-12-07T10:11:09;9.50;87.30
52189;DHT22;38162;45.926;13.608;2022-12-07T10:13:51;9.50;87.30
52189;DHT22;38162;45.926;13.608;2022-12-07T10:18:53;9.60;87.70
52189;DHT22;38162;45.926;13.608;2022-12-07T10:21:22;9.70;87.70
52189;DHT22;38162;45.926;13.608;2022-12-07T10:24:03;9.70;87.60
52189;DHT22;38162;45.926;13.608;2022-12-07T10:26:39;9.80;88.00
52189;DHT22;38162;45.926;13.608;2022-12-07T10:29:38;9.90;87.00
52189;DHT22;38162;45.926;13.608;2022-12-07T10:32:25;9.90;86.90
52189;DHT22;38162;45.926;13.608;2022-12-07T10:34:54;10.00;86.90
52189;DHT22;38162;45.926;13.608;2022-12-07T10:37:41;10.00;85.90
52189;DHT22;38162;45.926;13.608;2022-12-07T10:40:31;10.10;85.50
52189;DHT22;38162;45.926;13.608;2022-12-07T10:45:28;10.20;85.30
52189;DHT22;38162;45.926;13.608;2022-12-07T10:48:22;10.30;84.30
52189;DHT22;38162;45.926;13.608;2022-12-07T11:02:09;10.30;82.00
52189;DHT22;38162;45.926;13.608;2022-12-07T11:05:06;10.40;81.60
52189;DHT22;38162;45.926;13.608;2022-12-07T11:07:47;10.40;82.70
52189;DHT22;38162;45.926;13.608;2022-12-07T11:18:26;10.60;82.10
52189;DHT22;38162;45.926;13.608;2022-12-07T11:21:09;10.70;82.20
52189;DHT22;38162;45.926;13.608;2022-12-07T11:24:06;10.70;81.90
52189;DHT22;38162;45.926;13.608;2022-12-07T11:37:39;11.00;79.30
52189;DHT22;38162;45.926;13.608;2022-12-07T11:42:47;11.00;78.30
52189;DHT22;38162;45.926;13.608;2022-12-07T11:45:28;11.10;78.20
52189;DHT22;38162;45.926;13.608;2022-12-07T11:48:02;11.10;78.60
52189;DHT22;38162;45.926;13.608;2022-12-07T11:50:43;11.10;77.80
52189;DHT22;38162;45.926;13.608;2022-12-07T11:53:18;11.10;77.30
52189;DHT22;38162;45.926;13.608;2022-12-07T11:55:54;11.10;76.40
52189;DHT22;38162;45.926;13.608;2022-12-07T12:03:49;11.20;75.90
52189;DHT22;38162;45.926;13.608;2022-12-07T12:06:15;11.20;76.00
52189;DHT22;38162;45.926;13.608;2022-12-07T12:09:26;11.20;75.00
52189;DHT22;38162;45.926;13.608;2022-12-07T12:17:35;11.20;73.90
52189;DHT22;38162;45.926;13.608;2022-12-07T12:20:29;11.10;73.10
52189;DHT22;38162;45.926;13.608;2022-12-07T12:23:35;11.10;72.70
52189;DHT22;38162;45.926;13.608;2022-12-07T12:26:03;11.00;73.50
52189;DHT22;38162;45.926;13.608;2022-12-07T12:33:52;11.00;73.50
52189;DHT22;38162;45.926;13.608;2022-12-07T12:36:42;11.00;72.10
52189;DHT22;38162;45.926;13.608;2022-12-07T12:47:03;11.00;71.20
52189;DHT22;38162;45.926;13.608;2022-12-07T12:49:41;11.00;70.70
52189;DHT22;38162;45.926;13.608;2022-12-07T12:57:36;10.90;70.00
52189;DHT22;38162;45.926;13.608;2022-12-07T13:00:19;10.90;70.60
52189;DHT22;38162;45.926;13.608;2022-12-07T13:02:52;10.90;69.40
52189;DHT22;38162;45.926;13.608;2022-12-07T13:29:03;10.80;71.20
52189;DHT22;38162;45.926;13.608;2022-12-07T13:33:56;10.80;69.60
52189;DHT22;38162;45.926;13.608;2022-12-07T13:36:24;10.80;70.10
52189;DHT22;38162;45.926;13.608;2022-12-07T13:41:20;10.80;69.30
52189;DHT22;38162;45.926;13.608;2022-12-07T13:43:48;10.70;68.80
52189;DHT22;38162;45.926;13.608;2022-12-07T13:46:14;10.70;69.10
52189;DHT22;38162;45.926;13.608;2022-12-07T13:48:46;10.70;69.20
52189;DHT22;38162;45.926;13.608;2022-12-07T13:51:22;10.70;69.30
52189;DHT22;38162;45.926;13.608;2022-12-07T13:53:51;10.70;69.60
52189;DHT22;38162;45.926;13.608;2022-12-07T13:56:17;10.60;69.10
52189;DHT22;38162;45.926;13.608;2022-12-07T13:58:43;10.60;69.40
52189;DHT22;38162;45.926;13.608;2022-12-07T14:01:09;10.60;69.60
52189;DHT22;38162;45.926;13.608;2022-12-07T14:03:35;10.60;68.70
52189;DHT22;38162;45.926;13.608;2022-12-07T14:06:17;10.50;68.70
52189;DHT22;38162;45.926;13.608;2022-12-07T14:08:44;10.50;68.20
52189;DHT22;38162;45.926;13.608;2022-12-07T14:11:18;10.50;69.70
52189;DHT22;38162;45.926;13.608;2022-12-07T14:16:30;10.50;69.60
52189;DHT22;38162;45.926;13.608;2022-12-07T14:18:58;10.50;69.30
52189;DHT22;38162;45.926;13.608;2022-12-07T14:21:29;10.40;68.90
52189;DHT22;38162;45.926;13.608;2022-12-07T14:24:19;10.40;68.60
52189;DHT22;38162;45.926;13.608;2022-12-07T14:26:46;10.40;69.20
52189;DHT22;38162;45.926;13.608;2022-12-07T14:29:39;10.40;69.00
52189;DHT22;38162;45.926;13.608;2022-12-07T14:32:26;10.40;69.60
52189;DHT22;38162;45.926;13.608;2022-12-07T14:34:56;10.40;69.60
52189;DHT22;38162;45.926;13.608;2022-12-07T14:37:22;10.30;70.00
52189;DHT22;38162;45.926;13.608;2022-12-07T14:39:48;10.30;70.10
52189;DHT22;38162;45.926;13.608;2022-12-07T14:42:14;10.30;70.00
52189;DHT22;38162;45.926;13.608;2022-12-07T14:44:39;10.30;70.30
52189;DHT22;38162;45.926;13.608;2022-12-07T14:47:10;10.30;70.20
52189;DHT22;38162;45.926;13.608;2022-12-07T14:49:35;10.30;70.40
52189;DHT22;38162;45.926;13.608;2022-12-07T14:52:01;10.20;70.10
52189;DHT22;38162;45.926;13.608;2022-12-07T14:54:31;10.20;70.50
52189;DHT22;38162;45.926;13.608;2022-12-07T14:56:57;10.20;70.70
52189;DHT22;38162;45.926;13.608;2022-12-07T14:59:23;10.20;71.00
52189;DHT22;38162;45.926;13.608;2022-12-07T15:01:49;10.20;71.00
52189;DHT22;38162;45.926;13.608;2022-12-07T15:04:15;10.10;70.60
52189;DHT22;38162;45.926;13.608;2022-12-07T15:06:40;10.10;70.80
52189;DHT22;38162;45.926;13.608;2022-12-07T15:09:10;10.10;70.80
52189;DHT22;38162;45.926;13.608;2022-12-07T15:11:36;10.10;71.10
52189;DHT22;38162;45.926;13.608;2022-12-07T15:14:02;10.10;71.30
52189;DHT22;38162;45.926;13.608;2022-12-07T15:16:35;10.00;70.90
52189;DHT22;38162;45.926;13.608;2022-12-07T15:19:01;10.00;71.10
52189;DHT22;38162;45.926;13.608;2022-12-07T15:21:27;10.00;71.10
52189;DHT22;38162;45.926;13.608;2022-12-07T15:23:53;9.90;70.90
52189;DHT22;38162;45.926;13.608;2022-12-07T15:26:19;9.90;70.70
52189;DHT22;38162;45.926;13.608;2022-12-07T15:28:45;9.90;71.90
52189;DHT22;38162;45.926;13.608;2022-12-07T15:31:15;9.90;71.50
52189;DHT22;38162;45.926;13.608;2022-12-07T15:33:42;9.90;71.40
52189;DHT22;38162;45.926;13.608;2022-12-07T15:36:08;9.80;71.50
52189;DHT22;38162;45.926;13.608;2022-12-07T15:38:35;9.80;71.50
52189;DHT22;38162;45.926;13.608;2022-12-07T15:41:01;9.80;71.80
52189;DHT22;38162;45.926;13.608;2022-12-07T15:43:26;9.80;71.40
52189;DHT22;38162;45.926;13.608;2022-12-07T15:46:31;9.70;71.70
52189;DHT22;38162;45.926;13.608;2022-12-07T15:48:58;9.70;72.40
52189;DHT22;38162;45.926;13.608;2022-12-07T15:51:23;9.70;72.50
52189;DHT22;38162;45.926;13.608;2022-12-07T15:53:49;9.60;72.10
52189;DHT22;38162;45.926;13.608;2022-12-07T15:56:15;9.60;72.30
52189;DHT22;38162;45.926;13.608;2022-12-07T15:58:40;9.50;73.00
52189;DHT22;38162;45.926;13.608;2022-12-07T16:01:11;9.50;73.00
52189;DHT22;38162;45.926;13.608;2022-12-07T16:03:37;9.50;73.20
52189;DHT22;38162;45.926;13.608;2022-12-07T16:06:02;9.40;74.00
52189;DHT22;38162;45.926;13.608;2022-12-07T16:08:28;9.40;73.90
52189;DHT22;38162;45.926;13.608;2022-12-07T16:10:54;9.40;73.90
52189;DHT22;38162;45.926;13.608;2022-12-07T16:13:19;9.40;74.10
52189;DHT22;38162;45.926;13.608;2022-12-07T16:15:46;9.40;74.50
52189;DHT22;38162;45.926;13.608;2022-12-07T16:18:12;9.30;75.00
52189;DHT22;38162;45.926;13.608;2022-12-07T16:20:37;9.30;75.10
52189;DHT22;38162;45.926;13.608;2022-12-07T16:23:03;9.30;75.30
52189;DHT22;38162;45.926;13.608;2022-12-07T16:25:29;9.30;75.20
52189;DHT22;38162;45.926;13.608;2022-12-07T16:27:55;9.20;75.10
52189;DHT22;38162;45.926;13.608;2022-12-07T16:30:20;9.30;75.30
52189;DHT22;38162;45.926;13.608;2022-12-07T16:32:46;9.20;75.40
52189;DHT22;38162;45.926;13.608;2022-12-07T16:35:12;9.20;76.00
52189;DHT22;38162;45.926;13.608;2022-12-07T16:37:41;9.10;75.50
52189;DHT22;38162;45.926;13.608;2022-12-07T16:40:07;9.10;76.30
52189;DHT22;38162;45.926;13.608;2022-12-07T16:42:33;9.10;76.60
52189;DHT22;38162;45.926;13.608;2022-12-07T16:45:00;9.10;76.50
52189;DHT22;38162;45.926;13.608;2022-12-07T16:47:26;9.10;77.00
52189;DHT22;38162;45.926;13.608;2022-12-07T16:49:52;9.10;76.80
52189;DHT22;38162;45.926;13.608;2022-12-07T16:52:21;9.00;76.80
52189;DHT22;38162;45.926;13.608;2022-12-07T16:54:49;9.00;77.10
52189;DHT22;38162;45.926;13.608;2022-12-07T16:57:16;9.00;77.30
52189;DHT22;38162;45.926;13.608;2022-12-07T16:59:42;9.00;77.60
52189;DHT22;38162;45.926;13.608;2022-12-07T17:02:11;8.90;77.80
52189;DHT22;38162;45.926;13.608;2022-12-07T17:04:37;8.90;78.10
52189;DHT22;38162;45.926;13.608;2022-12-07T17:07:05;8.80;78.40
52189;DHT22;38162;45.926;13.608;2022-12-07T17:09:31;8.90;78.60
52189;DHT22;38162;45.926;13.608;2022-12-07T17:11:57;8.80;78.50
52189;DHT22;38162;45.926;13.608;2022-12-07T17:14:23;8.80;78.40
52189;DHT22;38162;45.926;13.608;2022-12-07T17:17:07;8.80;78.70
52189;DHT22;38162;45.926;13.608;2022-12-07T17:19:33;8.80;78.40
52189;DHT22;38162;45.926;13.608;2022-12-07T17:21:58;8.80;78.60
52189;DHT22;38162;45.926;13.608;2022-12-07T17:24:24;8.90;79.00
52189;DHT22;38162;45.926;13.608;2022-12-07T17:26:50;8.90;78.70
52189;DHT22;38162;45.926;13.608;2022-12-07T17:29:17;8.90;78.00
52189;DHT22;38162;45.926;13.608;2022-12-07T17:31:43;8.90;78.50
52189;DHT22;38162;45.926;13.608;2022-12-07T17:34:11;8.90;78.50
52189;DHT22;38162;45.926;13.608;2022-12-07T17:36:36;8.90;77.90
52189;DHT22;38162;45.926;13.608;2022-12-07T17:39:09;8.90;78.40
52189;DHT22;38162;45.926;13.608;2022-12-07T17:41:36;8.90;78.40
52189;DHT22;38162;45.926;13.608;2022-12-07T17:44:21;8.90;78.40
52189;DHT22;38162;45.926;13.608;2022-12-07T17:46:50;8.90;78.40
52189;DHT22;38162;45.926;13.608;2022-12-07T17:49:22;8.90;78.70
52189;DHT22;38162;45.926;13.608;2022-12-07T17:51:47;8.80;78.90
52189;DHT22;38162;45.926;13.608;2022-12-07T17:54:32;8.80;78.90